createdAt,value
2018-09-15T00:01:31.832Z,96023.97
2018-09-15T00:04:00.964Z,96026.66
2018-09-15T00:06:30.095Z,96026.12
2018-09-15T00:08:59.238Z,96025.91
2018-09-15T00:11:28.378Z,96029.43
2018-09-15T00:13:57.539Z,96018.91
2018-09-15T00:16:26.670Z,96020.27
2018-09-15T00:18:55.839Z,96019.97
2018-09-15T00:21:24.966Z,96021.86
2018-09-15T00:23:54.110Z,96023.75
2018-09-15T00:26:23.246Z,96024.56
2018-09-15T00:28:52.414Z,96019.97
2018-09-15T00:31:21.556Z,96026.44
2018-09-15T00:33:50.714Z,96028.37
2018-09-15T00:36:19.851Z,96024.86
2018-09-15T00:38:49.059Z,96022.97
2018-09-15T00:41:18.159Z,96025.67
2018-09-15T00:43:47.318Z,96031.02
2018-09-15T00:46:16.466Z,96031.02
2018-09-15T00:48:45.593Z,96025.67
2018-09-15T00:51:14.750Z,96021.61
2018-09-15T00:53:43.874Z,96011.58
2018-09-15T00:56:13.030Z,96001.58
2018-09-15T00:58:42.173Z,95994.79
2018-09-15T01:01:11.325Z,95993.52
2018-09-15T01:03:40.453Z,95992.77
2018-09-15T01:06:09.609Z,95991.94
2018-09-15T01:08:38.729Z,95991.72
2018-09-15T01:11:07.873Z,95993.89
2018-09-15T01:13:37.009Z,95992.28
2018-09-15T01:16:06.180Z,96005.78
2018-09-15T01:18:35.308Z,96008.23
2018-09-15T01:21:04.465Z,96019.56
2018-09-15T01:23:33.624Z,96027.10
2018-09-15T01:26:02.777Z,96033.03
2018-09-15T01:28:31.899Z,96033.56
2018-09-15T01:31:01.034Z,96027.34
2018-09-15T01:33:30.186Z,96019.84
2018-09-15T01:35:59.313Z,96020.92
2018-09-15T01:38:28.436Z,96022.84
2018-09-15T01:40:57.560Z,96024.71
2018-09-15T01:43:26.754Z,96040.38
2018-09-15T01:45:55.904Z,96040.09
2018-09-15T01:48:25.038Z,96041.44
2018-09-15T01:50:54.185Z,96048.94
2018-09-15T01:53:23.317Z,96053.80
2018-09-15T01:55:52.460Z,96050.29
2018-09-15T01:58:21.605Z,96046.52
2018-09-15T02:00:50.758Z,96043.81
2018-09-15T02:03:19.878Z,96046.22
2018-09-15T02:05:49.013Z,96046.50
2018-09-15T02:08:18.156Z,96049.44
2018-09-15T02:10:47.302Z,96043.75
2018-09-15T02:13:16.461Z,96045.61
2018-09-15T02:15:45.600Z,96043.98
2018-09-15T02:18:14.733Z,96037.50
2018-09-15T02:20:43.852Z,96036.98
2018-09-15T02:23:13.193Z,96038.27
2018-09-15T02:25:42.337Z,96031.81
2018-09-15T02:28:11.478Z,96031.30
2018-09-15T02:30:40.618Z,96039.92
2018-09-15T02:33:09.753Z,96033.98
2018-09-15T02:35:38.884Z,96034.23
2018-09-15T02:38:08.094Z,96029.97
2018-09-15T02:40:37.229Z,96035.65
2018-09-15T02:43:06.461Z,96031.84
2018-09-15T02:45:35.584Z,96037.81
2018-09-15T02:48:04.725Z,96036.71
2018-09-15T02:50:33.865Z,96041.59
2018-09-15T02:53:03.001Z,96035.13
2018-09-15T02:55:32.149Z,96035.14
2018-09-15T02:58:01.305Z,96034.32
2018-09-15T03:00:30.449Z,96037.32
2018-09-15T03:02:59.574Z,96043.25
2018-09-15T03:05:28.710Z,96042.19
2018-09-15T03:07:57.853Z,96037.91
2018-09-15T03:10:26.987Z,96048.41
2018-09-15T03:12:56.121Z,96052.74
2018-09-15T03:15:25.280Z,96048.99
2018-09-15T03:17:54.432Z,96050.63
2018-09-15T03:20:23.586Z,96053.58
2018-09-15T03:22:52.746Z,96059.51
2018-09-15T03:25:21.925Z,96055.73
2018-09-15T03:27:51.048Z,96054.39
2018-09-15T03:30:20.215Z,96052.74
2018-09-15T03:32:49.325Z,96057.08
2018-09-15T03:35:18.466Z,96063.30
2018-09-15T03:37:48.140Z,96058.45
2018-09-15T03:40:17.284Z,96066.25
2018-09-15T03:42:46.449Z,96065.47
2018-09-15T03:45:15.623Z,96065.48
2018-09-15T03:47:44.821Z,96056.58
2018-09-15T03:50:13.977Z,96056.58
2018-09-15T03:52:43.122Z,96057.97
2018-09-15T03:55:12.277Z,96054.75
2018-09-15T03:57:41.426Z,96063.62
2018-09-15T04:00:10.560Z,96073.63
2018-09-15T04:02:39.782Z,96075.52
2018-09-15T04:05:08.933Z,96083.36
2018-09-15T04:07:38.097Z,96079.28
2018-09-15T04:10:07.212Z,96079.28
2018-09-15T04:12:36.344Z,96084.95
2018-09-15T04:15:05.487Z,96079.28
2018-09-15T04:17:34.637Z,96086.05
2018-09-15T04:20:03.761Z,96087.41
2018-09-15T04:22:32.927Z,96094.97
2018-09-15T04:25:02.058Z,96089.83
2018-09-15T04:27:31.214Z,96101.71
2018-09-15T04:30:00.354Z,96097.66
2018-09-15T04:32:29.498Z,96109.51
2018-09-15T04:34:58.631Z,96112.73
2018-09-15T04:37:27.781Z,96106.24
2018-09-15T04:39:56.909Z,96098.16
2018-09-15T04:42:26.060Z,96104.93
2018-09-15T04:44:55.201Z,96105.75
2018-09-15T04:47:24.341Z,96113.02
2018-09-15T04:49:53.492Z,96115.72
2018-09-15T04:52:22.809Z,96120.55
2018-09-15T04:54:52.185Z,96130.22
2018-09-15T04:57:21.346Z,96135.32
2018-09-15T04:59:50.482Z,96141.53
2018-09-15T05:02:19.617Z,96149.58
2018-09-15T05:04:48.771Z,96146.34
2018-09-15T05:07:17.912Z,96148.23
2018-09-15T05:09:47.070Z,96151.22
2018-09-15T05:12:16.228Z,96155.79
2018-09-15T05:14:45.381Z,96155.02
2018-09-15T05:17:14.521Z,96164.21
2018-09-15T05:19:43.669Z,96163.36
2018-09-15T05:22:12.809Z,96164.98
2018-09-15T05:24:41.952Z,96167.68
2018-09-15T05:27:11.089Z,96173.33
2018-09-15T05:29:40.210Z,96174.37
2018-09-15T05:32:09.369Z,96182.20
2018-09-15T05:34:38.501Z,96183.81
2018-09-15T05:37:07.637Z,96187.05
2018-09-15T05:39:36.786Z,96193.80
2018-09-15T05:42:06.253Z,96192.69
2018-09-15T05:44:35.393Z,96187.00
2018-09-15T05:47:04.558Z,96188.06
2018-09-15T05:49:33.879Z,96192.92
2018-09-15T05:52:02.954Z,96201.02
2018-09-15T05:54:32.133Z,96208.00
2018-09-15T05:57:01.272Z,96210.46
2018-09-15T05:59:30.672Z,96208.81
2018-09-15T06:01:59.809Z,96210.16
2018-09-15T06:04:28.963Z,96219.08
2018-09-15T06:06:58.329Z,96225.25
2018-09-15T06:09:27.460Z,96227.41
2018-09-15T06:11:56.590Z,96226.89
2018-09-15T06:14:25.757Z,96230.95
2018-09-15T06:16:54.916Z,96234.42
2018-09-15T06:19:24.317Z,96230.12
2018-09-15T06:21:53.457Z,96231.18
2018-09-15T06:24:22.589Z,96236.58
2018-09-15T06:26:51.758Z,96238.19
2018-09-15T06:29:20.901Z,96236.84
2018-09-15T06:31:50.053Z,96243.35
2018-09-15T06:34:19.194Z,96243.05
2018-09-15T06:36:48.430Z,96233.84
2018-09-15T06:39:17.591Z,96233.02
2018-09-15T06:41:46.706Z,96233.83
2018-09-15T06:44:15.854Z,96227.33
2018-09-15T06:46:45.496Z,96233.04
2018-09-15T06:49:14.718Z,96229.83
2018-09-15T06:51:43.888Z,96238.48
2018-09-15T06:54:13.193Z,96244.42
2018-09-15T06:56:42.337Z,96250.06
2018-09-15T06:59:11.577Z,96257.34
2018-09-15T07:01:41.569Z,96244.40
2018-09-15T07:04:12.001Z,96252.98
2018-09-15T07:06:41.408Z,96254.86
2018-09-15T07:09:12.269Z,96255.38
2018-09-15T07:11:41.419Z,96258.31
2018-09-15T07:14:11.197Z,96261.02
2018-09-15T07:16:40.497Z,96267.22
2018-09-15T07:19:09.768Z,96273.41
2018-09-15T07:21:38.985Z,96275.05
2018-09-15T07:24:08.135Z,96281.56
2018-09-15T07:26:37.278Z,96290.21
2018-09-15T07:29:06.762Z,96288.56
2018-09-15T07:31:35.947Z,96292.08
2018-09-15T07:34:05.059Z,96296.66
2018-09-15T07:36:34.206Z,96296.88
2018-09-15T07:39:03.381Z,96296.36
2018-09-15T07:41:32.537Z,96304.17
2018-09-15T07:44:01.688Z,96308.75
2018-09-15T07:46:30.812Z,96298.75
2018-09-15T07:48:59.977Z,96306.85
2018-09-15T07:51:29.115Z,96300.94
2018-09-15T07:53:58.549Z,96307.45
2018-09-15T07:56:27.688Z,96316.31
2018-09-15T07:58:56.805Z,96320.97
2018-09-15T08:01:26.137Z,96319.91
2018-09-15T08:03:55.278Z,96324.48
2018-09-15T08:06:24.439Z,96329.31
2018-09-15T08:08:53.597Z,96326.61
2018-09-15T08:11:22.733Z,96324.71
2018-09-15T08:13:51.878Z,96321.36
2018-09-15T08:16:21.229Z,96323.06
2018-09-15T08:18:50.349Z,96323.09
2018-09-15T08:21:19.482Z,96329.31
2018-09-15T08:23:48.621Z,96331.23
2018-09-15T08:26:17.795Z,96329.81
2018-09-15T08:28:47.068Z,96330.06
2018-09-15T08:31:16.213Z,96328.53
2018-09-15T08:33:45.613Z,96330.13
2018-09-15T08:36:14.757Z,96331.48
2018-09-15T08:38:43.901Z,96327.95
2018-09-15T08:41:14.122Z,96324.12
2018-09-15T08:43:43.200Z,96325.49
2018-09-15T08:46:12.341Z,96326.02
2018-09-15T08:48:41.642Z,96333.30
2018-09-15T08:51:10.774Z,96338.70
2018-09-15T08:53:39.911Z,96341.86
2018-09-15T08:56:09.328Z,96341.03
2018-09-15T08:58:38.455Z,96343.41
2018-09-15T09:01:07.583Z,96348.59
2018-09-15T09:03:36.785Z,96350.77
2018-09-15T09:06:05.888Z,96357.47
2018-09-15T09:08:35.021Z,96357.40
2018-09-15T09:11:04.165Z,96359.06
2018-09-15T09:13:33.313Z,96354.17
2018-09-15T09:16:02.462Z,96361.19
2018-09-15T09:18:31.615Z,96361.58
2018-09-15T09:21:00.766Z,96365.00
2018-09-15T09:23:29.937Z,96361.19
2018-09-15T09:25:59.112Z,96366.27
2018-09-15T09:28:28.414Z,96362.08
2018-09-15T09:30:57.549Z,96358.56
2018-09-15T09:33:26.710Z,96359.17
2018-09-15T09:35:55.841Z,96358.98
2018-09-15T09:38:25.038Z,96362.00
2018-09-15T09:40:54.173Z,96353.92
2018-09-15T09:43:23.329Z,96355.06
2018-09-15T09:45:52.533Z,96351.89
2018-09-15T09:48:21.767Z,96354.30
2018-09-15T09:50:50.848Z,96355.06
2018-09-15T09:53:20.074Z,96350.85
2018-09-15T09:55:49.209Z,96359.31
2018-09-15T09:58:18.362Z,96360.89
2018-09-15T10:00:52.814Z,96360.13
2018-09-15T10:03:22.317Z,96356.66
2018-09-15T10:05:51.509Z,96355.88
2018-09-15T10:08:20.670Z,96359.93
2018-09-15T10:10:49.834Z,96356.98
2018-09-15T10:13:18.989Z,96351.84
2018-09-15T10:15:48.126Z,96349.68
2018-09-15T10:18:17.269Z,96352.57
2018-09-15T10:20:46.413Z,96355.58
2018-09-15T10:23:15.642Z,96357.27
2018-09-15T10:25:44.778Z,96351.80
2018-09-15T10:28:13.913Z,96354.59
2018-09-15T10:30:43.082Z,96356.95
2018-09-15T10:33:12.377Z,96358.14
2018-09-15T10:35:41.558Z,96356.37
2018-09-15T10:38:10.709Z,96346.72
2018-09-15T10:40:39.894Z,96349.55
2018-09-15T10:43:09.041Z,96351.22
2018-09-15T10:45:38.198Z,96349.27
2018-09-15T10:48:07.494Z,96351.03
2018-09-15T10:50:36.704Z,96351.23
2018-09-15T10:53:05.872Z,96355.39
2018-09-15T10:55:35.234Z,96349.75
2018-09-15T10:58:04.405Z,96351.11
2018-09-15T11:00:33.572Z,96351.81
2018-09-15T11:03:02.703Z,96351.12
2018-09-15T11:05:31.853Z,96342.39
2018-09-15T11:08:01.061Z,96341.08
2018-09-15T11:10:30.294Z,96343.13
2018-09-15T11:12:59.429Z,96347.17
2018-09-15T11:15:28.585Z,96348.94
2018-09-15T11:17:57.742Z,96348.47
2018-09-15T11:20:26.885Z,96344.36
2018-09-15T11:22:56.086Z,96344.06
2018-09-15T11:25:25.161Z,96340.59
2018-09-15T11:27:54.313Z,96345.42
2018-09-15T11:30:23.465Z,96345.09
2018-09-15T11:32:52.607Z,96346.45
2018-09-15T11:35:21.802Z,96343.41
2018-09-15T11:37:50.930Z,96346.36
2018-09-15T11:40:20.092Z,96347.05
2018-09-15T11:42:49.217Z,96348.63
2018-09-15T11:45:18.405Z,96346.64
2018-09-15T11:47:47.540Z,96346.81
2018-09-15T11:50:16.690Z,96343.52
2018-09-15T11:52:52.617Z,96340.88
2018-09-15T11:55:21.761Z,96343.98
2018-09-15T11:57:51.093Z,96351.12
2018-09-15T12:00:23.773Z,96339.75
2018-09-15T12:02:52.905Z,96338.22
2018-09-15T12:05:22.058Z,96333.16
2018-09-15T12:07:51.226Z,96329.78
2018-09-15T12:10:20.333Z,96331.64
2018-09-15T12:12:49.470Z,96324.69
2018-09-15T12:15:18.940Z,96317.61
2018-09-15T12:17:48.153Z,96315.49
2018-09-15T12:20:17.305Z,96314.34
2018-09-15T12:22:46.441Z,96318.98
2018-09-15T12:25:15.577Z,96322.58
2018-09-15T12:27:44.764Z,96313.72
2018-09-15T12:30:13.875Z,96325.19
2018-09-15T12:32:42.997Z,96322.59
2018-09-15T12:35:12.144Z,96321.37
2018-09-15T12:37:41.277Z,96320.29
2018-09-15T12:40:10.445Z,96324.33
2018-09-15T12:42:39.575Z,96320.84
2018-09-15T12:45:08.769Z,96320.44
2018-09-15T12:47:37.874Z,96325.97
2018-09-15T12:50:07.017Z,96318.16
2018-09-15T12:52:36.190Z,96316.45
2018-09-15T12:55:05.499Z,96316.39
2018-09-15T12:57:34.690Z,96317.13
2018-09-15T13:00:03.823Z,96317.07
2018-09-15T13:02:32.966Z,96313.44
2018-09-15T13:05:02.110Z,96311.21
2018-09-15T13:07:31.257Z,96310.03
2018-09-15T13:10:00.413Z,96309.22
2018-09-15T13:12:29.558Z,96304.92
2018-09-15T13:14:58.708Z,96305.90
2018-09-15T13:17:27.874Z,96305.05
2018-09-15T13:19:57.009Z,96300.05
2018-09-15T13:22:26.157Z,96304.54
2018-09-15T13:24:55.373Z,96299.77
2018-09-15T13:27:24.517Z,96304.80
2018-09-15T13:29:53.750Z,96296.09
2018-09-15T13:32:22.813Z,96295.65
2018-09-15T13:34:51.941Z,96301.31
2018-09-15T13:37:21.060Z,96301.39
2018-09-15T13:39:50.197Z,96303.30
2018-09-15T13:42:19.337Z,96300.12
2018-09-15T13:44:48.457Z,96294.50
2018-09-15T13:47:17.729Z,96299.45
2018-09-15T13:49:46.876Z,96304.55
2018-09-15T13:52:15.996Z,96294.73
2018-09-15T13:54:45.154Z,96294.50
2018-09-15T13:57:14.320Z,96297.77
2018-09-15T14:00:46.539Z,96295.86
2018-09-15T14:03:15.672Z,96291.16
2018-09-15T14:05:44.813Z,96294.27
2018-09-15T14:08:14.002Z,96297.59
2018-09-15T14:10:43.172Z,96302.63
2018-09-15T14:13:12.297Z,96302.97
2018-09-15T14:15:41.461Z,96298.93
2018-09-15T14:18:10.869Z,96298.11
2018-09-15T14:20:40.006Z,96292.64
2018-09-15T14:23:09.137Z,96294.49
2018-09-15T14:25:38.283Z,96297.75
2018-09-15T14:28:07.522Z,96296.86
2018-09-15T14:30:36.648Z,96295.06
2018-09-15T14:33:05.852Z,96294.59
2018-09-15T14:35:34.997Z,96291.53
2018-09-15T14:38:04.160Z,96295.12
2018-09-15T14:40:33.294Z,96289.42
2018-09-15T14:43:02.438Z,96295.03
2018-09-15T14:45:31.580Z,96293.08
2018-09-15T14:48:01.122Z,96291.16
2018-09-15T14:50:36.030Z,96289.84
2018-09-15T14:53:05.145Z,96291.06
2018-09-15T14:55:34.301Z,96295.18
2018-09-15T14:58:03.445Z,96289.08
2018-09-15T15:00:32.609Z,96288.44
2018-09-15T15:03:04.938Z,96292.38
2018-09-15T15:05:34.069Z,96288.62
2018-09-15T15:08:03.210Z,96281.41
2018-09-15T15:10:32.348Z,96290.33
2018-09-15T15:13:01.494Z,96287.56
2018-09-15T15:15:30.646Z,96280.18
2018-09-15T15:17:59.781Z,96283.17
2018-09-15T15:20:29.114Z,96282.91
2018-09-15T15:22:58.242Z,96286.58
2018-09-15T15:25:27.369Z,96291.88
2018-09-15T15:27:56.505Z,96293.66
2018-09-15T15:30:25.681Z,96289.78
2018-09-15T15:32:54.813Z,96288.46
2018-09-15T15:35:24.006Z,96290.50
2018-09-15T15:37:53.065Z,96289.89
2018-09-15T15:40:22.267Z,96288.77
2018-09-15T15:42:51.407Z,96294.70
2018-09-15T15:45:20.618Z,96293.69
2018-09-15T15:47:49.724Z,96281.65
2018-09-15T15:50:18.861Z,96292.53
2018-09-15T15:52:48.005Z,96290.13
2018-09-15T15:55:17.145Z,96292.53
2018-09-15T15:57:46.308Z,96293.55
2018-09-15T16:00:15.426Z,96292.47
2018-09-15T16:02:44.586Z,96294.57
2018-09-15T16:05:13.721Z,96299.63
2018-09-15T16:07:43.131Z,96293.05
2018-09-15T16:10:12.244Z,96295.14
2018-09-15T16:12:41.366Z,96293.24
2018-09-15T16:15:10.553Z,96294.19
2018-09-15T16:17:39.748Z,96293.47
2018-09-15T16:20:08.885Z,96290.09
2018-09-15T16:22:38.025Z,96295.46
2018-09-15T16:25:07.205Z,96300.38
2018-09-15T16:27:36.345Z,96297.33
2018-09-15T16:30:06.202Z,96299.20
2018-09-15T16:32:35.478Z,96295.36
2018-09-15T16:35:04.736Z,96302.81
2018-09-15T16:37:34.044Z,96307.34
2018-09-15T16:40:03.182Z,96301.70
2018-09-15T16:42:32.336Z,96303.16
2018-09-15T16:45:01.469Z,96313.00
2018-09-15T16:47:30.674Z,96315.52
2018-09-15T16:49:59.797Z,96307.95
2018-09-15T16:52:28.947Z,96305.81
2018-09-15T16:54:58.070Z,96310.22
2018-09-15T16:57:27.222Z,96304.83
2018-09-15T16:59:56.408Z,96309.70
2018-09-15T17:02:25.553Z,96305.13
2018-09-15T17:04:54.691Z,96309.97
2018-09-15T17:07:23.850Z,96310.54
2018-09-15T17:09:53.010Z,96317.33
2018-09-15T17:12:22.133Z,96317.91
2018-09-15T17:14:51.277Z,96323.12
2018-09-15T17:17:20.411Z,96331.25
2018-09-15T17:19:49.596Z,96333.15
2018-09-15T17:22:18.771Z,96334.23
2018-09-15T17:24:47.982Z,96331.30
2018-09-15T17:27:17.116Z,96332.39
2018-09-15T17:29:46.613Z,96341.89
2018-09-15T17:32:15.729Z,96342.45
2018-09-15T17:34:44.877Z,96353.53
2018-09-15T17:37:14.033Z,96360.89
2018-09-15T17:39:43.167Z,96362.78
2018-09-15T17:42:12.384Z,96369.28
2018-09-15T17:44:41.594Z,96375.28
2018-09-15T17:47:10.722Z,96378.72
2018-09-15T17:49:39.921Z,96379.59
2018-09-15T17:52:09.105Z,96385.20
2018-09-15T17:54:38.325Z,96388.77
2018-09-15T17:57:07.713Z,96391.30
2018-09-15T17:59:36.874Z,96396.67
2018-09-15T18:02:06.090Z,96395.37
2018-09-15T18:04:35.226Z,96396.21
2018-09-15T18:07:04.425Z,96400.70
2018-09-15T18:09:33.655Z,96401.64
2018-09-15T18:12:02.771Z,96403.02
2018-09-15T18:14:31.933Z,96407.66
2018-09-15T18:17:01.110Z,96404.17
2018-09-15T18:19:30.270Z,96406.41
2018-09-15T18:21:59.474Z,96402.14
2018-09-15T18:24:28.641Z,96413.28
2018-09-15T18:26:57.801Z,96418.69
2018-09-15T18:29:27.011Z,96418.72
2018-09-15T18:31:56.193Z,96420.64
2018-09-15T18:34:25.357Z,96431.45
2018-09-15T18:36:54.768Z,96434.72
2018-09-15T18:39:23.717Z,96435.84
2018-09-15T18:41:52.904Z,96435.33
2018-09-15T18:44:22.118Z,96443.73
2018-09-15T18:46:51.348Z,96440.52
2018-09-15T18:49:20.602Z,96439.17
2018-09-15T18:51:49.801Z,96435.40
2018-09-15T18:54:19.027Z,96435.69
2018-09-15T18:56:48.195Z,96442.98
2018-09-15T18:59:17.353Z,96434.87
2018-09-15T19:01:46.535Z,96431.88
2018-09-15T19:04:15.696Z,96432.16
2018-09-15T19:06:44.882Z,96439.98
2018-09-15T19:09:14.033Z,96442.97
2018-09-15T19:11:43.192Z,96443.26
2018-09-15T19:14:12.408Z,96453.22
2018-09-15T19:16:41.559Z,96451.33
2018-09-15T19:19:10.729Z,96448.09
2018-09-15T19:21:39.901Z,96446.45
2018-09-15T19:24:09.049Z,96454.80
2018-09-15T19:26:38.277Z,96450.74
2018-09-15T19:29:07.411Z,96460.48
2018-09-15T19:31:36.621Z,96459.95
2018-09-15T19:34:05.761Z,96451.56
2018-09-15T19:36:34.916Z,96461.60
2018-09-15T19:39:05.145Z,96457.02
2018-09-15T19:41:34.322Z,96461.08
2018-09-15T19:44:03.534Z,96460.30
2018-09-15T19:46:32.718Z,96456.25
2018-09-15T19:49:01.890Z,96463.57
2018-09-15T19:51:31.081Z,96461.16
2018-09-15T19:54:00.275Z,96455.22
2018-09-15T19:56:29.434Z,96457.11
2018-09-15T19:58:58.684Z,96450.92
2018-09-15T20:01:27.887Z,96452.27
2018-09-15T20:03:57.057Z,96454.44
2018-09-15T20:06:26.264Z,96457.95
2018-09-15T20:09:02.067Z,96455.53
2018-09-15T20:11:31.202Z,96451.20
2018-09-15T20:14:00.349Z,96454.97
2018-09-15T20:16:28.013Z,96454.16
2018-09-15T20:18:55.782Z,96454.72
2018-09-15T20:21:23.395Z,96450.92
2018-09-15T20:23:52.521Z,96459.59
2018-09-15T20:26:21.669Z,96453.11
2018-09-15T20:28:50.852Z,96450.41
2018-09-15T20:31:20.062Z,96444.75
2018-09-15T20:33:49.348Z,96451.20
2018-09-15T20:36:18.600Z,96455.53
2018-09-15T20:38:48.706Z,96450.94
2018-09-15T20:41:17.861Z,96455.52
2018-09-15T20:43:47.021Z,96455.52
2018-09-15T20:46:16.165Z,96455.78
2018-09-15T20:48:45.332Z,96453.66
2018-09-15T20:51:14.480Z,96455.02
2018-09-15T20:53:43.645Z,96444.21
2018-09-15T20:56:12.791Z,96444.47
2018-09-15T20:58:42.918Z,96447.20
2018-09-15T21:01:14.464Z,96447.73
2018-09-15T21:03:44.838Z,96443.93
2018-09-15T21:06:35.355Z,96450.13
2018-09-15T21:09:06.866Z,96432.86
2018-09-15T21:11:36.073Z,96452.81
2018-09-15T21:14:05.664Z,96451.20
2018-09-15T21:16:34.910Z,96460.66
2018-09-15T21:19:04.200Z,96460.92
2018-09-15T21:21:33.406Z,96470.38
2018-09-15T21:24:02.576Z,96460.94
2018-09-15T21:26:32.048Z,96465.52
2018-09-15T21:29:01.190Z,96460.95
2018-09-15T21:31:31.377Z,96466.32
2018-09-15T21:34:00.642Z,96466.59
2018-09-15T21:36:29.806Z,96466.85
2018-09-15T21:38:59.335Z,96463.61
2018-09-15T21:41:28.601Z,96461.43
2018-09-15T21:43:57.819Z,96454.95
2018-09-15T21:46:27.217Z,96449.80
2018-09-15T21:48:56.469Z,96454.63
2018-09-15T21:51:25.847Z,96462.45
2018-09-15T21:53:55.396Z,96463.25
2018-09-15T21:56:24.608Z,96463.52
2018-09-15T21:58:54.063Z,96461.35
2018-09-15T22:01:23.388Z,96459.13
2018-09-15T22:03:57.823Z,96462.09
2018-09-15T22:06:27.243Z,96462.37
2018-09-15T22:08:56.491Z,96472.30
2018-09-15T22:11:25.810Z,96475.80
2018-09-15T22:13:55.099Z,96476.09
2018-09-15T22:16:24.366Z,96476.36
2018-09-15T22:18:53.653Z,96470.09
2018-09-15T22:21:22.994Z,96470.63
2018-09-15T22:23:52.259Z,96469.55
2018-09-15T22:26:21.449Z,96474.64
2018-09-15T22:28:50.642Z,96472.74
2018-09-15T22:31:19.864Z,96472.21
2018-09-15T22:33:49.036Z,96466.80
2018-09-15T22:36:18.213Z,96467.05
2018-09-15T22:38:47.414Z,96464.66
2018-09-15T22:41:16.887Z,96468.16
2018-09-15T22:43:46.074Z,96478.13
2018-09-15T22:46:15.288Z,96481.12
2018-09-15T22:48:44.470Z,96480.26
2018-09-15T22:51:13.648Z,96483.49
2018-09-15T22:53:42.867Z,96475.92
2018-09-15T22:56:12.043Z,96478.82
2018-09-15T22:58:41.211Z,96479.69
2018-09-15T23:01:10.421Z,96478.59
2018-09-15T23:03:39.663Z,96477.80
2018-09-15T23:06:08.843Z,96479.59
2018-09-15T23:08:38.057Z,96483.68
2018-09-15T23:11:08.057Z,96477.70
2018-09-15T23:13:37.323Z,96473.16
2018-09-15T23:16:06.564Z,96476.06
2018-09-15T23:18:35.717Z,96476.05
2018-09-15T23:21:04.908Z,96472.28
2018-09-15T23:23:34.077Z,96469.02
2018-09-15T23:26:03.245Z,96469.49
2018-09-15T23:28:32.419Z,96467.92
2018-09-15T23:31:01.609Z,96464.39
2018-09-15T23:33:30.821Z,96463.29
2018-09-15T23:36:00.045Z,96460.30
2018-09-15T23:38:29.204Z,96457.88
2018-09-15T23:40:58.477Z,96457.06
2018-09-15T23:43:27.649Z,96450.56
2018-09-15T23:45:56.833Z,96451.91
2018-09-15T23:48:26.005Z,96448.98
2018-09-15T23:50:55.172Z,96448.93
2018-09-15T23:53:24.348Z,96447.87
2018-09-15T23:55:53.530Z,96455.37
2018-09-15T23:58:22.785Z,96454.80
